sensor_id;sensor_type;location;lat;lon;timestamp;P1;durP1;ratioP1;P2;durP2;ratioP2
20150;SDS011;10236;49.638;6.830;2023-01-30T00:00:30;70.60;;;29.97;;
20150;SDS011;10236;49.638;6.830;2023-01-30T00:02:56;100.40;;;38.20;;
20150;SDS011;10236;49.638;6.830;2023-01-30T00:05:23;63.70;;;29.33;;
20150;SDS011;10236;49.638;6.830;2023-01-30T00:07:48;159.20;;;49.93;;
20150;SDS011;10236;49.638;6.830;2023-01-30T00:10:14;101.17;;;38.10;;
20150;SDS011;10236;49.638;6.830;2023-01-30T00:12:40;122.33;;;44.40;;
20150;SDS011;10236;49.638;6.830;2023-01-30T00:15:07;75.73;;;34.00;;
20150;SDS011;10236;49.638;6.830;2023-01-30T00:17:33;127.40;;;43.33;;
20150;SDS011;10236;49.638;6.830;2023-01-30T00:19:59;194.87;;;59.77;;
20150;SDS011;10236;49.638;6.830;2023-01-30T00:22:24;87.77;;;35.03;;
20150;SDS011;10236;49.638;6.830;2023-01-30T00:24:50;93.97;;;36.90;;
20150;SDS011;10236;49.638;6.830;2023-01-30T00:27:16;155.27;;;50.03;;
20150;SDS011;10236;49.638;6.830;2023-01-30T00:29:42;189.60;;;58.17;;
20150;SDS011;10236;49.638;6.830;2023-01-30T00:32:08;76.87;;;31.30;;
20150;SDS011;10236;49.638;6.830;2023-01-30T00:34:34;69.03;;;30.80;;
20150;SDS011;10236;49.638;6.830;2023-01-30T00:37:00;67.63;;;30.43;;
20150;SDS011;10236;49.638;6.830;2023-01-30T00:39:26;74.43;;;33.87;;
20150;SDS011;10236;49.638;6.830;2023-01-30T00:41:52;78.03;;;34.10;;
20150;SDS011;10236;49.638;6.830;2023-01-30T00:44:36;68.20;;;30.97;;
20150;SDS011;10236;49.638;6.830;2023-01-30T00:47:21;72.33;;;32.17;;
20150;SDS011;10236;49.638;6.830;2023-01-30T00:49:47;85.67;;;37.80;;
20150;SDS011;10236;49.638;6.830;2023-01-30T00:52:13;107.60;;;40.40;;
20150;SDS011;10236;49.638;6.830;2023-01-30T00:54:39;71.37;;;30.93;;
20150;SDS011;10236;49.638;6.830;2023-01-30T00:57:05;65.13;;;30.93;;
20150;SDS011;10236;49.638;6.830;2023-01-30T00:59:31;120.30;;;44.63;;
20150;SDS011;10236;49.638;6.830;2023-01-30T01:01:57;75.07;;;33.77;;
20150;SDS011;10236;49.638;6.830;2023-01-30T01:04:23;63.97;;;31.13;;
20150;SDS011;10236;49.638;6.830;2023-01-30T01:06:49;64.30;;;30.40;;
20150;SDS011;10236;49.638;6.830;2023-01-30T01:09:15;69.70;;;31.63;;
20150;SDS011;10236;49.638;6.830;2023-01-30T01:11:41;84.17;;;35.33;;
20150;SDS011;10236;49.638;6.830;2023-01-30T01:14:07;68.50;;;32.23;;
20150;SDS011;10236;49.638;6.830;2023-01-30T01:16:33;78.90;;;34.70;;
20150;SDS011;10236;49.638;6.830;2023-01-30T01:18:59;74.73;;;34.73;;
20150;SDS011;10236;49.638;6.830;2023-01-30T01:21:25;84.10;;;35.30;;
20150;SDS011;10236;49.638;6.830;2023-01-30T01:23:54;78.93;;;34.10;;
20150;SDS011;10236;49.638;6.830;2023-01-30T01:26:20;86.20;;;37.27;;
20150;SDS011;10236;49.638;6.830;2023-01-30T01:28:46;77.37;;;34.13;;
20150;SDS011;10236;49.638;6.830;2023-01-30T01:31:13;83.93;;;35.20;;
20150;SDS011;10236;49.638;6.830;2023-01-30T01:33:39;80.83;;;34.13;;
20150;SDS011;10236;49.638;6.830;2023-01-30T01:36:05;98.10;;;40.23;;
20150;SDS011;10236;49.638;6.830;2023-01-30T01:38:32;72.77;;;30.97;;
20150;SDS011;10236;49.638;6.830;2023-01-30T01:40:58;111.40;;;46.53;;
20150;SDS011;10236;49.638;6.830;2023-01-30T01:43:29;87.17;;;35.17;;
20150;SDS011;10236;49.638;6.830;2023-01-30T01:45:58;85.90;;;35.00;;
20150;SDS011;10236;49.638;6.830;2023-01-30T01:48:33;95.30;;;38.23;;
20150;SDS011;10236;49.638;6.830;2023-01-30T01:51:04;92.50;;;36.60;;
20150;SDS011;10236;49.638;6.830;2023-01-30T01:53:33;93.60;;;37.73;;
20150;SDS011;10236;49.638;6.830;2023-01-30T01:56:01;90.77;;;37.33;;
20150;SDS011;10236;49.638;6.830;2023-01-30T01:58:32;94.20;;;36.10;;
20150;SDS011;10236;49.638;6.830;2023-01-30T02:00:59;93.23;;;36.27;;
20150;SDS011;10236;49.638;6.830;2023-01-30T02:03:26;85.13;;;33.20;;
20150;SDS011;10236;49.638;6.830;2023-01-30T02:05:54;93.07;;;36.87;;
20150;SDS011;10236;49.638;6.830;2023-01-30T02:08:23;87.43;;;35.53;;
20150;SDS011;10236;49.638;6.830;2023-01-30T02:10:53;98.03;;;38.63;;
20150;SDS011;10236;49.638;6.830;2023-01-30T02:13:21;92.67;;;38.97;;
20150;SDS011;10236;49.638;6.830;2023-01-30T02:15:48;96.77;;;39.87;;
20150;SDS011;10236;49.638;6.830;2023-01-30T02:18:14;94.13;;;37.33;;
20150;SDS011;10236;49.638;6.830;2023-01-30T02:23:21;89.73;;;37.13;;
20150;SDS011;10236;49.638;6.830;2023-01-30T02:31:31;92.43;;;38.23;;
20150;SDS011;10236;49.638;6.830;2023-01-30T02:34:07;93.30;;;38.60;;
20150;SDS011;10236;49.638;6.830;2023-01-30T02:46:52;77.07;;;34.33;;
20150;SDS011;10236;49.638;6.830;2023-01-30T02:49:37;81.10;;;36.53;;
20150;SDS011;10236;49.638;6.830;2023-01-30T02:52:05;77.43;;;31.63;;
20150;SDS011;10236;49.638;6.830;2023-01-30T02:54:32;64.43;;;29.53;;
20150;SDS011;10236;49.638;6.830;2023-01-30T02:56:58;73.90;;;34.23;;
20150;SDS011;10236;49.638;6.830;2023-01-30T02:59:29;68.90;;;32.20;;
20150;SDS011;10236;49.638;6.830;2023-01-30T03:07:11;81.30;;;36.47;;
20150;SDS011;10236;49.638;6.830;2023-01-30T03:09:42;75.93;;;34.47;;
20150;SDS011;10236;49.638;6.830;2023-01-30T03:14:38;74.93;;;34.27;;
20150;SDS011;10236;49.638;6.830;2023-01-30T03:17:08;71.17;;;31.17;;
20150;SDS011;10236;49.638;6.830;2023-01-30T03:19:35;74.90;;;33.00;;
20150;SDS011;10236;49.638;6.830;2023-01-30T03:22:01;63.57;;;28.77;;
20150;SDS011;10236;49.638;6.830;2023-01-30T03:24:27;70.23;;;33.27;;
20150;SDS011;10236;49.638;6.830;2023-01-30T03:26:56;74.77;;;32.00;;
20150;SDS011;10236;49.638;6.830;2023-01-30T03:29:23;68.97;;;28.93;;
20150;SDS011;10236;49.638;6.830;2023-01-30T03:31:49;69.10;;;30.00;;
20150;SDS011;10236;49.638;6.830;2023-01-30T03:34:15;64.43;;;29.50;;
20150;SDS011;10236;49.638;6.830;2023-01-30T03:36:40;73.33;;;33.30;;
20150;SDS011;10236;49.638;6.830;2023-01-30T03:39:06;72.23;;;32.10;;
20150;SDS011;10236;49.638;6.830;2023-01-30T03:41:32;73.03;;;32.53;;
20150;SDS011;10236;49.638;6.830;2023-01-30T03:43:58;69.77;;;31.20;;
20150;SDS011;10236;49.638;6.830;2023-01-30T03:46:24;67.13;;;29.37;;
20150;SDS011;10236;49.638;6.830;2023-01-30T03:48:50;62.83;;;27.70;;
20150;SDS011;10236;49.638;6.830;2023-01-30T03:51:16;64.60;;;27.33;;
20150;SDS011;10236;49.638;6.830;2023-01-30T03:53:42;69.83;;;31.07;;
20150;SDS011;10236;49.638;6.830;2023-01-30T03:56:08;61.57;;;28.47;;
20150;SDS011;10236;49.638;6.830;2023-01-30T03:58:34;68.17;;;30.20;;
20150;SDS011;10236;49.638;6.830;2023-01-30T04:01:00;57.10;;;24.90;;
20150;SDS011;10236;49.638;6.830;2023-01-30T04:03:26;59.93;;;25.60;;
20150;SDS011;10236;49.638;6.830;2023-01-30T04:05:52;52.63;;;24.40;;
20150;SDS011;10236;49.638;6.830;2023-01-30T04:08:18;59.07;;;28.03;;
20150;SDS011;10236;49.638;6.830;2023-01-30T04:10:44;52.33;;;24.53;;
20150;SDS011;10236;49.638;6.830;2023-01-30T04:13:09;56.53;;;25.63;;
20150;SDS011;10236;49.638;6.830;2023-01-30T04:15:35;52.43;;;23.63;;
20150;SDS011;10236;49.638;6.830;2023-01-30T04:18:01;45.23;;;23.43;;
20150;SDS011;10236;49.638;6.830;2023-01-30T04:20:27;55.27;;;23.27;;
20150;SDS011;10236;49.638;6.830;2023-01-30T04:22:53;52.60;;;23.73;;
20150;SDS011;10236;49.638;6.830;2023-01-30T04:25:20;48.37;;;24.03;;
20150;SDS011;10236;49.638;6.830;2023-01-30T04:27:46;46.27;;;21.70;;
20150;SDS011;10236;49.638;6.830;2023-01-30T04:30:13;57.23;;;26.23;;
20150;SDS011;10236;49.638;6.830;2023-01-30T04:32:39;50.97;;;22.23;;
20150;SDS011;10236;49.638;6.830;2023-01-30T04:35:05;54.40;;;25.70;;
20150;SDS011;10236;49.638;6.830;2023-01-30T04:37:31;52.03;;;24.33;;
20150;SDS011;10236;49.638;6.830;2023-01-30T04:39:57;43.13;;;19.90;;
20150;SDS011;10236;49.638;6.830;2023-01-30T04:42:23;48.43;;;24.00;;
20150;SDS011;10236;49.638;6.830;2023-01-30T04:44:49;51.17;;;22.13;;
20150;SDS011;10236;49.638;6.830;2023-01-30T04:47:15;45.63;;;22.27;;
20150;SDS011;10236;49.638;6.830;2023-01-30T04:49:41;51.57;;;23.10;;
20150;SDS011;10236;49.638;6.830;2023-01-30T04:52:07;47.43;;;23.00;;
20150;SDS011;10236;49.638;6.830;2023-01-30T04:54:32;44.37;;;20.27;;
20150;SDS011;10236;49.638;6.830;2023-01-30T04:56:58;47.40;;;21.87;;
20150;SDS011;10236;49.638;6.830;2023-01-30T04:59:24;48.90;;;24.63;;
20150;SDS011;10236;49.638;6.830;2023-01-30T05:01:50;53.03;;;23.37;;
20150;SDS011;10236;49.638;6.830;2023-01-30T05:04:16;49.20;;;22.57;;
20150;SDS011;10236;49.638;6.830;2023-01-30T05:06:42;53.10;;;22.90;;
20150;SDS011;10236;49.638;6.830;2023-01-30T05:09:08;50.57;;;21.87;;
20150;SDS011;10236;49.638;6.830;2023-01-30T05:11:34;47.03;;;20.33;;
20150;SDS011;10236;49.638;6.830;2023-01-30T05:14:00;46.60;;;23.53;;
20150;SDS011;10236;49.638;6.830;2023-01-30T05:16:26;52.83;;;22.80;;
20150;SDS011;10236;49.638;6.830;2023-01-30T05:18:52;54.20;;;23.23;;
20150;SDS011;10236;49.638;6.830;2023-01-30T05:21:19;49.10;;;21.47;;
20150;SDS011;10236;49.638;6.830;2023-01-30T05:23:46;59.23;;;25.57;;
20150;SDS011;10236;49.638;6.830;2023-01-30T05:26:13;53.43;;;21.83;;
20150;SDS011;10236;49.638;6.830;2023-01-30T05:28:39;50.53;;;22.37;;
20150;SDS011;10236;49.638;6.830;2023-01-30T05:31:06;46.10;;;20.93;;
20150;SDS011;10236;49.638;6.830;2023-01-30T05:33:32;55.30;;;23.87;;
20150;SDS011;10236;49.638;6.830;2023-01-30T05:35:58;52.83;;;21.57;;
20150;SDS011;10236;49.638;6.830;2023-01-30T05:38:25;50.90;;;21.47;;
20150;SDS011;10236;49.638;6.830;2023-01-30T05:41:01;48.07;;;21.63;;
20150;SDS011;10236;49.638;6.830;2023-01-30T05:43:34;52.67;;;22.73;;
20150;SDS011;10236;49.638;6.830;2023-01-30T05:46:04;47.23;;;20.57;;
20150;SDS011;10236;49.638;6.830;2023-01-30T05:48:33;57.67;;;24.23;;
20150;SDS011;10236;49.638;6.830;2023-01-30T05:50:59;57.97;;;22.83;;
20150;SDS011;10236;49.638;6.830;2023-01-30T05:53:34;63.13;;;24.17;;
20150;SDS011;10236;49.638;6.830;2023-01-30T05:56:05;68.53;;;23.53;;
20150;SDS011;10236;49.638;6.830;2023-01-30T05:58:53;78.23;;;26.13;;
20150;SDS011;10236;49.638;6.830;2023-01-30T06:01:38;72.30;;;23.37;;
20150;SDS011;10236;49.638;6.830;2023-01-30T06:04:24;96.17;;;27.57;;
20150;SDS011;10236;49.638;6.830;2023-01-30T06:07:07;104.87;;;27.53;;
20150;SDS011;10236;49.638;6.830;2023-01-30T06:09:36;118.77;;;29.53;;
20150;SDS011;10236;49.638;6.830;2023-01-30T06:12:08;75.37;;;24.30;;
20150;SDS011;10236;49.638;6.830;2023-01-30T06:14:37;81.03;;;22.97;;
20150;SDS011;10236;49.638;6.830;2023-01-30T06:17:30;55.80;;;19.80;;
20150;SDS011;10236;49.638;6.830;2023-01-30T06:19:59;41.90;;;19.07;;
20150;SDS011;10236;49.638;6.830;2023-01-30T06:22:38;42.47;;;19.10;;
20150;SDS011;10236;49.638;6.830;2023-01-30T06:25:13;48.70;;;19.33;;
20150;SDS011;10236;49.638;6.830;2023-01-30T06:27:50;52.70;;;24.37;;
20150;SDS011;10236;49.638;6.830;2023-01-30T06:30:34;55.40;;;26.70;;
20150;SDS011;10236;49.638;6.830;2023-01-30T06:33:12;39.93;;;19.77;;
20150;SDS011;10236;49.638;6.830;2023-01-30T06:36:00;33.97;;;15.00;;
20150;SDS011;10236;49.638;6.830;2023-01-30T06:38:38;35.80;;;16.93;;
20150;SDS011;10236;49.638;6.830;2023-01-30T06:43:45;27.00;;;13.93;;
20150;SDS011;10236;49.638;6.830;2023-01-30T06:46:17;29.60;;;14.30;;
20150;SDS011;10236;49.638;6.830;2023-01-30T06:48:49;32.00;;;14.43;;
20150;SDS011;10236;49.638;6.830;2023-01-30T06:51:28;32.00;;;14.67;;
20150;SDS011;10236;49.638;6.830;2023-01-30T06:54:02;33.83;;;16.13;;
20150;SDS011;10236;49.638;6.830;2023-01-30T06:56:51;37.97;;;16.33;;
20150;SDS011;10236;49.638;6.830;2023-01-30T06:59:34;33.10;;;15.03;;
20150;SDS011;10236;49.638;6.830;2023-01-30T07:02:06;37.80;;;17.80;;
20150;SDS011;10236;49.638;6.830;2023-01-30T07:04:37;34.73;;;16.30;;
20150;SDS011;10236;49.638;6.830;2023-01-30T07:07:21;37.00;;;16.03;;
20150;SDS011;10236;49.638;6.830;2023-01-30T07:10:05;39.67;;;17.30;;
20150;SDS011;10236;49.638;6.830;2023-01-30T07:21:15;38.73;;;16.93;;
20150;SDS011;10236;49.638;6.830;2023-01-30T07:23:45;50.97;;;18.33;;
20150;SDS011;10236;49.638;6.830;2023-01-30T07:29:09;119.53;;;53.10;;
20150;SDS011;10236;49.638;6.830;2023-01-30T07:31:46;69.93;;;29.57;;
20150;SDS011;10236;49.638;6.830;2023-01-30T07:34:38;131.97;;;48.33;;
20150;SDS011;10236;49.638;6.830;2023-01-30T07:37:07;62.87;;;27.20;;
20150;SDS011;10236;49.638;6.830;2023-01-30T07:42:36;68.60;;;35.00;;
20150;SDS011;10236;49.638;6.830;2023-01-30T07:45:12;61.90;;;29.50;;
20150;SDS011;10236;49.638;6.830;2023-01-30T07:47:58;66.23;;;34.07;;
20150;SDS011;10236;49.638;6.830;2023-01-30T07:50:49;105.40;;;56.07;;
20150;SDS011;10236;49.638;6.830;2023-01-30T07:53:31;29.43;;;15.20;;
20150;SDS011;10236;49.638;6.830;2023-01-30T07:56:04;63.33;;;32.67;;
20150;SDS011;10236;49.638;6.830;2023-01-30T07:58:40;26.60;;;14.57;;
20150;SDS011;10236;49.638;6.830;2023-01-30T08:01:26;72.13;;;34.67;;
20150;SDS011;10236;49.638;6.830;2023-01-30T08:03:59;24.80;;;12.27;;
20150;SDS011;10236;49.638;6.830;2023-01-30T08:06:31;31.77;;;15.93;;
20150;SDS011;10236;49.638;6.830;2023-01-30T08:09:20;49.53;;;27.67;;
20150;SDS011;10236;49.638;6.830;2023-01-30T08:12:07;54.13;;;31.67;;
20150;SDS011;10236;49.638;6.830;2023-01-30T08:14:39;26.73;;;15.50;;
20150;SDS011;10236;49.638;6.830;2023-01-30T08:17:10;15.87;;;8.60;;
20150;SDS011;10236;49.638;6.830;2023-01-30T08:19:42;21.10;;;11.53;;
20150;SDS011;10236;49.638;6.830;2023-01-30T08:22:14;17.47;;;10.23;;
20150;SDS011;10236;49.638;6.830;2023-01-30T08:24:51;21.57;;;12.07;;
20150;SDS011;10236;49.638;6.830;2023-01-30T08:27:22;21.30;;;11.93;;
20150;SDS011;10236;49.638;6.830;2023-01-30T08:29:57;21.90;;;12.60;;
20150;SDS011;10236;49.638;6.830;2023-01-30T08:32:31;18.70;;;9.63;;
20150;SDS011;10236;49.638;6.830;2023-01-30T08:37:42;25.40;;;14.87;;
20150;SDS011;10236;49.638;6.830;2023-01-30T08:40:22;23.03;;;12.37;;
20150;SDS011;10236;49.638;6.830;2023-01-30T08:42:53;24.37;;;13.53;;
20150;SDS011;10236;49.638;6.830;2023-01-30T08:48:24;21.47;;;11.10;;
20150;SDS011;10236;49.638;6.830;2023-01-30T08:53:32;26.00;;;13.90;;
20150;SDS011;10236;49.638;6.830;2023-01-30T08:56:09;23.00;;;13.20;;
20150;SDS011;10236;49.638;6.830;2023-01-30T08:58:41;21.93;;;10.43;;
20150;SDS011;10236;49.638;6.830;2023-01-30T09:01:19;20.47;;;10.40;;
20150;SDS011;10236;49.638;6.830;2023-01-30T09:03:48;30.93;;;17.87;;
20150;SDS011;10236;49.638;6.830;2023-01-30T09:06:28;18.83;;;10.40;;
20150;SDS011;10236;49.638;6.830;2023-01-30T09:09:05;24.87;;;12.27;;
20150;SDS011;10236;49.638;6.830;2023-01-30T09:11:41;33.40;;;17.40;;
20150;SDS011;10236;49.638;6.830;2023-01-30T09:14:12;28.83;;;13.60;;
20150;SDS011;10236;49.638;6.830;2023-01-30T09:17:04;53.37;;;29.37;;
20150;SDS011;10236;49.638;6.830;2023-01-30T09:19:32;36.53;;;17.97;;
20150;SDS011;10236;49.638;6.830;2023-01-30T09:22:12;27.47;;;12.30;;
20150;SDS011;10236;49.638;6.830;2023-01-30T09:24:52;23.83;;;12.20;;
20150;SDS011;10236;49.638;6.830;2023-01-30T09:27:22;52.60;;;16.57;;
20150;SDS011;10236;49.638;6.830;2023-01-30T09:29:54;31.87;;;12.87;;
20150;SDS011;10236;49.638;6.830;2023-01-30T09:32:29;43.90;;;20.80;;
20150;SDS011;10236;49.638;6.830;2023-01-30T09:35:11;27.90;;;13.13;;
20150;SDS011;10236;49.638;6.830;2023-01-30T09:37:52;66.57;;;33.37;;
20150;SDS011;10236;49.638;6.830;2023-01-30T09:40:31;33.20;;;11.60;;
20150;SDS011;10236;49.638;6.830;2023-01-30T09:46:59;25.07;;;13.43;;
20150;SDS011;10236;49.638;6.830;2023-01-30T09:56:41;26.33;;;12.50;;
20150;SDS011;10236;49.638;6.830;2023-01-30T10:04:53;22.63;;;11.17;;
20150;SDS011;10236;49.638;6.830;2023-01-30T10:13:05;32.87;;;16.00;;
20150;SDS011;10236;49.638;6.830;2023-01-30T10:23:35;21.43;;;10.60;;
20150;SDS011;10236;49.638;6.830;2023-01-30T10:26:16;21.70;;;10.73;;
20150;SDS011;10236;49.638;6.830;2023-01-30T10:31:42;21.13;;;10.27;;
20150;SDS011;10236;49.638;6.830;2023-01-30T10:34:24;27.87;;;13.53;;
20150;SDS011;10236;49.638;6.830;2023-01-30T10:42:22;88.17;;;20.67;;
20150;SDS011;10236;49.638;6.830;2023-01-30T10:44:53;25.30;;;10.43;;
20150;SDS011;10236;49.638;6.830;2023-01-30T10:50:22;42.43;;;15.93;;
20150;SDS011;10236;49.638;6.830;2023-01-30T10:53:08;46.73;;;16.30;;
20150;SDS011;10236;49.638;6.830;2023-01-30T10:55:50;49.93;;;12.77;;
20150;SDS011;10236;49.638;6.830;2023-01-30T10:58:30;66.83;;;16.30;;
20150;SDS011;10236;49.638;6.830;2023-01-30T11:01:11;113.33;;;19.03;;
20150;SDS011;10236;49.638;6.830;2023-01-30T11:03:45;126.13;;;26.67;;
20150;SDS011;10236;49.638;6.830;2023-01-30T11:06:24;77.60;;;20.57;;
20150;SDS011;10236;49.638;6.830;2023-01-30T11:08:56;44.90;;;15.37;;
20150;SDS011;10236;49.638;6.830;2023-01-30T11:11:54;25.00;;;11.17;;
20150;SDS011;10236;49.638;6.830;2023-01-30T11:20:41;30.50;;;11.50;;
20150;SDS011;10236;49.638;6.830;2023-01-30T11:23:26;31.83;;;10.70;;
20150;SDS011;10236;49.638;6.830;2023-01-30T11:25:58;51.50;;;14.33;;
20150;SDS011;10236;49.638;6.830;2023-01-30T11:28:26;40.47;;;12.47;;
20150;SDS011;10236;49.638;6.830;2023-01-30T11:31:05;60.90;;;15.67;;
20150;SDS011;10236;49.638;6.830;2023-01-30T11:33:40;130.60;;;20.40;;
20150;SDS011;10236;49.638;6.830;2023-01-30T11:44:43;249.93;;;29.20;;
20150;SDS011;10236;49.638;6.830;2023-01-30T11:47:17;197.50;;;25.73;;
20150;SDS011;10236;49.638;6.830;2023-01-30T11:49:48;304.83;;;40.33;;
20150;SDS011;10236;49.638;6.830;2023-01-30T11:52:27;183.20;;;39.43;;
20150;SDS011;10236;49.638;6.830;2023-01-30T11:55:08;258.03;;;50.23;;
20150;SDS011;10236;49.638;6.830;2023-01-30T11:57:48;105.53;;;39.47;;
20150;SDS011;10236;49.638;6.830;2023-01-30T12:00:19;43.93;;;23.83;;
20150;SDS011;10236;49.638;6.830;2023-01-30T12:02:55;19.93;;;12.70;;
20150;SDS011;10236;49.638;6.830;2023-01-30T12:07:53;22.60;;;15.43;;
20150;SDS011;10236;49.638;6.830;2023-01-30T12:10:44;20.27;;;12.80;;
20150;SDS011;10236;49.638;6.830;2023-01-30T12:16:27;17.20;;;11.07;;
20150;SDS011;10236;49.638;6.830;2023-01-30T12:24:43;19.13;;;14.03;;
20150;SDS011;10236;49.638;6.830;2023-01-30T12:32:44;20.43;;;12.50;;
20150;SDS011;10236;49.638;6.830;2023-01-30T12:35:27;18.57;;;12.03;;
20150;SDS011;10236;49.638;6.830;2023-01-30T12:38:17;26.80;;;14.67;;
20150;SDS011;10236;49.638;6.830;2023-01-30T12:57:10;33.50;;;20.23;;
20150;SDS011;10236;49.638;6.830;2023-01-30T13:13:51;17.50;;;10.37;;
20150;SDS011;10236;49.638;6.830;2023-01-30T13:19:02;16.77;;;9.30;;
20150;SDS011;10236;49.638;6.830;2023-01-30T13:26:57;14.47;;;7.77;;
20150;SDS011;10236;49.638;6.830;2023-01-30T13:29:29;16.27;;;10.17;;
20150;SDS011;10236;49.638;6.830;2023-01-30T13:32:29;11.67;;;7.40;;
20150;SDS011;10236;49.638;6.830;2023-01-30T13:34:53;11.90;;;7.57;;
20150;SDS011;10236;49.638;6.830;2023-01-30T13:37:24;11.70;;;7.60;;
20150;SDS011;10236;49.638;6.830;2023-01-30T13:40:07;12.20;;;7.87;;
20150;SDS011;10236;49.638;6.830;2023-01-30T13:45:44;13.20;;;8.53;;
20150;SDS011;10236;49.638;6.830;2023-01-30T13:53:47;21.37;;;9.83;;
20150;SDS011;10236;49.638;6.830;2023-01-30T13:56:27;15.20;;;7.77;;
20150;SDS011;10236;49.638;6.830;2023-01-30T13:59:16;14.77;;;7.93;;
20150;SDS011;10236;49.638;6.830;2023-01-30T14:04:53;16.73;;;9.30;;
20150;SDS011;10236;49.638;6.830;2023-01-30T14:10:18;13.83;;;7.63;;
20150;SDS011;10236;49.638;6.830;2023-01-30T14:12:54;17.97;;;9.70;;
20150;SDS011;10236;49.638;6.830;2023-01-30T14:15:24;18.53;;;8.17;;
20150;SDS011;10236;49.638;6.830;2023-01-30T14:20:43;16.17;;;7.97;;
20150;SDS011;10236;49.638;6.830;2023-01-30T14:23:31;24.40;;;10.27;;
20150;SDS011;10236;49.638;6.830;2023-01-30T14:26:01;20.00;;;9.93;;
20150;SDS011;10236;49.638;6.830;2023-01-30T14:31:08;92.67;;;32.27;;
20150;SDS011;10236;49.638;6.830;2023-01-30T14:33:50;73.47;;;32.33;;
20150;SDS011;10236;49.638;6.830;2023-01-30T14:36:50;17.77;;;10.07;;
20150;SDS011;10236;49.638;6.830;2023-01-30T14:39:39;40.00;;;23.03;;
20150;SDS011;10236;49.638;6.830;2023-01-30T14:42:29;35.87;;;18.73;;
20150;SDS011;10236;49.638;6.830;2023-01-30T14:47:36;22.67;;;10.40;;
20150;SDS011;10236;49.638;6.830;2023-01-30T14:50:15;16.13;;;9.00;;
20150;SDS011;10236;49.638;6.830;2023-01-30T14:52:47;19.73;;;8.70;;
20150;SDS011;10236;49.638;6.830;2023-01-30T14:55:18;16.60;;;8.60;;
20150;SDS011;10236;49.638;6.830;2023-01-30T14:58:18;19.93;;;11.53;;
20150;SDS011;10236;49.638;6.830;2023-01-30T15:00:54;17.67;;;7.10;;
20150;SDS011;10236;49.638;6.830;2023-01-30T15:03:27;19.77;;;9.17;;
20150;SDS011;10236;49.638;6.830;2023-01-30T15:06:04;17.23;;;8.40;;
20150;SDS011;10236;49.638;6.830;2023-01-30T15:08:33;28.80;;;14.43;;
20150;SDS011;10236;49.638;6.830;2023-01-30T15:11:23;11.67;;;8.27;;
20150;SDS011;10236;49.638;6.830;2023-01-30T15:22:36;11.73;;;5.70;;
20150;SDS011;10236;49.638;6.830;2023-01-30T15:33:24;12.43;;;6.63;;
20150;SDS011;10236;49.638;6.830;2023-01-30T15:38:54;15.57;;;5.10;;
20150;SDS011;10236;49.638;6.830;2023-01-30T15:41:27;12.40;;;4.57;;
20150;SDS011;10236;49.638;6.830;2023-01-30T15:49:47;12.63;;;4.70;;
20150;SDS011;10236;49.638;6.830;2023-01-30T15:52:31;11.83;;;6.40;;
20150;SDS011;10236;49.638;6.830;2023-01-30T15:55:03;14.33;;;5.57;;
20150;SDS011;10236;49.638;6.830;2023-01-30T15:57:33;14.77;;;5.03;;
20150;SDS011;10236;49.638;6.830;2023-01-30T16:00:06;10.47;;;4.37;;
20150;SDS011;10236;49.638;6.830;2023-01-30T16:02:35;9.73;;;3.93;;
20150;SDS011;10236;49.638;6.830;2023-01-30T16:05:23;10.60;;;3.60;;
20150;SDS011;10236;49.638;6.830;2023-01-30T16:07:52;9.37;;;3.77;;
20150;SDS011;10236;49.638;6.830;2023-01-30T16:10:22;12.80;;;4.10;;
20150;SDS011;10236;49.638;6.830;2023-01-30T16:12:54;16.80;;;4.43;;
20150;SDS011;10236;49.638;6.830;2023-01-30T16:18:36;21.70;;;7.03;;
20150;SDS011;10236;49.638;6.830;2023-01-30T16:21:05;23.33;;;9.67;;
20150;SDS011;10236;49.638;6.830;2023-01-30T16:23:42;31.07;;;12.67;;
20150;SDS011;10236;49.638;6.830;2023-01-30T16:26:17;42.17;;;24.30;;
20150;SDS011;10236;49.638;6.830;2023-01-30T16:31:47;43.63;;;18.30;;
20150;SDS011;10236;49.638;6.830;2023-01-30T16:34:36;22.00;;;8.93;;
20150;SDS011;10236;49.638;6.830;2023-01-30T16:42:37;17.57;;;5.80;;
20150;SDS011;10236;49.638;6.830;2023-01-30T16:47:39;14.70;;;3.60;;
20150;SDS011;10236;49.638;6.830;2023-01-30T16:52:56;12.33;;;3.70;;
20150;SDS011;10236;49.638;6.830;2023-01-30T16:55:30;12.43;;;3.80;;
20150;SDS011;10236;49.638;6.830;2023-01-30T16:58:05;10.90;;;3.50;;
20150;SDS011;10236;49.638;6.830;2023-01-30T17:00:37;15.23;;;3.77;;
20150;SDS011;10236;49.638;6.830;2023-01-30T17:03:05;14.43;;;3.70;;
20150;SDS011;10236;49.638;6.830;2023-01-30T17:05:47;13.97;;;3.40;;
20150;SDS011;10236;49.638;6.830;2023-01-30T17:08:59;16.73;;;3.80;;
20150;SDS011;10236;49.638;6.830;2023-01-30T17:11:38;13.93;;;3.43;;
20150;SDS011;10236;49.638;6.830;2023-01-30T17:14:25;22.40;;;6.67;;
20150;SDS011;10236;49.638;6.830;2023-01-30T17:19:58;40.57;;;17.67;;
20150;SDS011;10236;49.638;6.830;2023-01-30T17:22:50;26.40;;;9.73;;
20150;SDS011;10236;49.638;6.830;2023-01-30T17:31:55;35.63;;;14.70;;
20150;SDS011;10236;49.638;6.830;2023-01-30T17:39:38;113.87;;;47.53;;
20150;SDS011;10236;49.638;6.830;2023-01-30T17:42:13;36.33;;;15.37;;
20150;SDS011;10236;49.638;6.830;2023-01-30T17:44:51;130.67;;;57.60;;
20150;SDS011;10236;49.638;6.830;2023-01-30T17:47:18;76.50;;;34.47;;
20150;SDS011;10236;49.638;6.830;2023-01-30T17:50:03;71.57;;;32.70;;
20150;SDS011;10236;49.638;6.830;2023-01-30T17:52:52;47.77;;;20.43;;
20150;SDS011;10236;49.638;6.830;2023-01-30T17:55:18;59.83;;;31.20;;
20150;SDS011;10236;49.638;6.830;2023-01-30T17:57:45;45.23;;;18.90;;
20150;SDS011;10236;49.638;6.830;2023-01-30T18:00:16;48.53;;;22.10;;
20150;SDS011;10236;49.638;6.830;2023-01-30T18:02:42;38.27;;;17.93;;
20150;SDS011;10236;49.638;6.830;2023-01-30T18:05:08;47.77;;;21.23;;
20150;SDS011;10236;49.638;6.830;2023-01-30T18:07:34;39.10;;;22.57;;
20150;SDS011;10236;49.638;6.830;2023-01-30T18:10:01;28.73;;;13.27;;
20150;SDS011;10236;49.638;6.830;2023-01-30T18:12:27;39.20;;;19.40;;
20150;SDS011;10236;49.638;6.830;2023-01-30T18:14:53;16.73;;;7.40;;
20150;SDS011;10236;49.638;6.830;2023-01-30T18:17:19;19.47;;;7.50;;
20150;SDS011;10236;49.638;6.830;2023-01-30T18:19:45;13.83;;;6.70;;
20150;SDS011;10236;49.638;6.830;2023-01-30T18:22:11;20.63;;;6.83;;
20150;SDS011;10236;49.638;6.830;2023-01-30T18:24:37;20.47;;;7.77;;
20150;SDS011;10236;49.638;6.830;2023-01-30T18:27:03;26.50;;;6.23;;
20150;SDS011;10236;49.638;6.830;2023-01-30T18:29:29;25.43;;;8.43;;
20150;SDS011;10236;49.638;6.830;2023-01-30T18:31:55;25.63;;;7.80;;
20150;SDS011;10236;49.638;6.830;2023-01-30T18:36:57;29.53;;;11.33;;
20150;SDS011;10236;49.638;6.830;2023-01-30T18:39:23;39.17;;;15.13;;
20150;SDS011;10236;49.638;6.830;2023-01-30T18:41:49;27.00;;;11.53;;
20150;SDS011;10236;49.638;6.830;2023-01-30T18:44:15;44.10;;;18.00;;
20150;SDS011;10236;49.638;6.830;2023-01-30T18:46:41;27.30;;;10.37;;
20150;SDS011;10236;49.638;6.830;2023-01-30T18:49:07;30.17;;;12.10;;
20150;SDS011;10236;49.638;6.830;2023-01-30T18:51:33;24.80;;;8.50;;
20150;SDS011;10236;49.638;6.830;2023-01-30T18:53:59;43.00;;;22.43;;
20150;SDS011;10236;49.638;6.830;2023-01-30T18:56:30;54.20;;;26.73;;
20150;SDS011;10236;49.638;6.830;2023-01-30T18:58:57;61.93;;;28.23;;